Fireboat Challenger — WR8183 — position and weather

sailwx.info

Track history (hours):
 
Tides and Currents Weather Stations Pressure Air Temp Water Temp Dewpoint Dewpoint Depression Visibility Wind Speed Wind Dir Waves Ship Positions

Fireboat Challenger

More information available from US FCC via Universal Licensing System and Coast Guard Vessel Documentation Center.

Last reported at 2014-Sep-18 02:07 UTC. Time now 2014-Sep-20 05:57 UTC.
Position N 33°45' W 118°13'.

Length 29 m.

MMSI: 367067790.

Date/timePositionNaut miles runAvg speedWind from/ knotsBaromVisibWave heightAir tempDewpointWater temp
2014-Sep-18 02:07N 33°45' W 118°13'0 0.0
2014-Sep-18 01:33N 33°45' W 118°13'0 0.0
2014-Sep-18 00:33N 33°45' W 118°13'0 0.0
2014-Sep-17 23:33N 33°45' W 118°13'0 0.0
2014-Sep-17 22:33N 33°45' W 118°13'0 0.0
2014-Sep-17 21:33N 33°45' W 118°13'0 0.0
2014-Sep-17 20:33N 33°45' W 118°13'0 0.0
2014-Sep-17 19:33N 33°45' W 118°13'0 0.0
2014-Sep-17 18:33N 33°45' W 118°13'0 0.0
2014-Sep-17 17:33N 33°45' W 118°13'0 0.0
2014-Sep-17 05:06N 33°45' W 118°13'510.0
2014-Sep-17 04:33N 33°41' W 118°18'5 0.9
2014-Sep-16 22:33N 33°45' W 118°13'0 0.0
2014-Sep-16 21:28N 33°45' W 118°13'0 0.0
2014-Sep-16 20:33N 33°45' W 118°13'0 0.0
2014-Sep-16 19:33N 33°45' W 118°13'0 0.0
2014-Sep-16 18:33N 33°45' W 118°13'0 0.0
2014-Sep-16 01:33N 33°45' W 118°13'0 0.0
2014-Sep-16 00:33N 33°45' W 118°13'0 0.0
2014-Sep-15 23:33N 33°45' W 118°13'0 0.0
2014-Sep-15 22:33N 33°45' W 118°13'0 0.0
2014-Sep-15 19:32N 33°45' W 118°13'0 0.0
2014-Sep-15 01:33N 33°45' W 118°13'0 0.0
2014-Sep-15 00:33N 33°45' W 118°13'0 0.0
2014-Sep-14 23:33N 33°45' W 118°13'0 0.0
2014-Sep-14 22:33N 33°45' W 118°13'0 0.0
2014-Sep-14 21:33N 33°45' W 118°13'0 0.0
2014-Sep-14 20:33N 33°45' W 118°13'0 0.0
2014-Sep-14 19:33N 33°45' W 118°13'0 0.0
2014-Sep-14 18:33N 33°45' W 118°13'0 0.0
2014-Sep-14 17:33N 33°45' W 118°13'0 0.0
2014-Sep-14 16:33N 33°45' W 118°13'0 0.0
2014-Sep-14 15:33N 33°45' W 118°13'0 0.0
2014-Sep-14 14:33N 33°45' W 118°13'0 0.0
2014-Sep-14 13:33N 33°45' W 118°13'0 0.0
2014-Sep-14 12:33N 33°45' W 118°13'0 0.0
2014-Sep-14 11:33N 33°45' W 118°13'0 0.0
2014-Sep-14 10:33N 33°45' W 118°13'0 0.0
2014-Sep-14 09:33N 33°45' W 118°13'0 0.0
2014-Sep-14 08:33N 33°45' W 118°13'0 0.0
2014-Sep-14 07:33N 33°45' W 118°13'0 0.0
2014-Sep-14 06:33N 33°45' W 118°13'0 0.0
2014-Sep-14 05:33N 33°45' W 118°13'0 0.0
2014-Sep-14 04:32N 33°45' W 118°13'0 0.0
2014-Sep-14 03:33N 33°45' W 118°13'0 0.0
2014-Sep-14 02:32N 33°45' W 118°13'0 0.0
2014-Sep-14 01:33N 33°45' W 118°13'3 0.6
2014-Sep-13 21:33N 33°43' W 118°15'1 1.1
2014-Sep-13 20:33N 33°44' W 118°16'3 2.7
2014-Sep-13 19:33N 33°45' W 118°13'0 0.0
2014-Sep-13 18:33N 33°45' W 118°13'0 0.0
2014-Sep-13 17:33N 33°45' W 118°13'0 0.0
2014-Sep-13 16:33N 33°45' W 118°13'0 0.0
2014-Sep-13 15:33N 33°45' W 118°13'0 0.0
2014-Sep-13 14:33N 33°45' W 118°13'0 0.0
2014-Sep-13 13:33N 33°45' W 118°13'0 0.0
2014-Sep-13 12:33N 33°45' W 118°13'0 0.0
2014-Sep-13 11:33N 33°45' W 118°13'0 0.0
2014-Sep-13 10:33N 33°45' W 118°13'0 0.0
2014-Sep-13 09:33N 33°45' W 118°13'0 0.0
2014-Sep-13 08:32N 33°45' W 118°13'0 0.0
2014-Sep-13 07:32N 33°45' W 118°13'0 0.0
2014-Sep-13 06:33N 33°45' W 118°13'0 0.0
2014-Sep-13 05:33N 33°45' W 118°13'0 0.0
2014-Sep-13 04:33N 33°45' W 118°13'0 0.0
2014-Sep-13 03:31N 33°45' W 118°13'0 0.0
2014-Sep-13 02:32N 33°45' W 118°13'0 0.0
2014-Sep-13 01:22N 33°45' W 118°13'0 0.0
2014-Sep-13 00:33N 33°45' W 118°13'0 0.0
2014-Sep-12 23:33N 33°45' W 118°13'0 0.0
2014-Sep-12 22:33N 33°45' W 118°13'0 0.0
2014-Sep-12 21:33N 33°45' W 118°13'0 0.0
2014-Sep-12 20:33N 33°45' W 118°13'0 0.0
2014-Sep-12 19:33N 33°45' W 118°13'0 0.0
2014-Sep-12 18:33N 33°45' W 118°13'0 0.0
2014-Sep-12 17:33N 33°45' W 118°13'0 0.0
2014-Sep-12 16:32N 33°45' W 118°13'1 0.0
2014-Sep-11 21:33N 33°46' W 118°13'1 0.8
2014-Sep-11 20:33N 33°45' W 118°13'0 0.0
2014-Sep-11 19:33N 33°45' W 118°13'0 0.0
2014-Sep-11 18:33N 33°45' W 118°13'0 0.0
2014-Sep-11 17:33N 33°45' W 118°13'0 0.0
2014-Sep-11 01:23N 33°45' W 118°13'0 0.0
2014-Sep-11 00:33N 33°45' W 118°13'0 0.0
2014-Sep-10 23:33N 33°45' W 118°13'0 0.0
2014-Sep-10 22:06N 33°45' W 118°13'0 0.0
2014-Sep-10 21:19N 33°45' W 118°13'0 0.0
2014-Sep-10 20:33N 33°45' W 118°13'0 0.0
2014-Sep-10 19:33N 33°45' W 118°13'0 0.0
2014-Sep-10 18:30N 33°45' W 118°13'0 0.0
2014-Sep-10 16:28N 33°45' W 118°13'0 0.0
2014-Sep-10 01:10N 33°45' W 118°13'0 0.0
2014-Sep-10 00:33N 33°45' W 118°13'0 0.0
2014-Sep-09 22:05N 33°45' W 118°13'0 0.0
2014-Sep-09 21:33N 33°45' W 118°13'0 0.0
2014-Sep-09 20:31N 33°45' W 118°13'0 0.0
2014-Sep-09 18:26N 33°45' W 118°13'0 0.3
2014-Sep-09 17:19N 33°45' W 118°13'0 0.4
2014-Sep-09 16:33N 33°45' W 118°13'0 0.0
2014-Sep-08 23:30N 33°45' W 118°13'  
Track history (hours):
 
Tides and Currents Weather Stations Pressure Air Temp Water Temp Dewpoint Dewpoint Depression Visibility Wind Speed Wind Dir Waves Ship Positions

Fireboat Challenger

More information available from US FCC via Universal Licensing System and Coast Guard Vessel Documentation Center.

Last reported at 2014-Sep-18 02:07 UTC. Time now 2014-Sep-20 05:57 UTC.
Position N 33°45' W 118°13'.

Length 29 m.

MMSI: 367067790.

Date/timePositionNaut miles runAvg speedWind from/ knotsBaromVisibWave heightAir tempDewpointWater temp
2014-Sep-18 02:07N 33°45' W 118°13'0 0.0
2014-Sep-18 01:33N 33°45' W 118°13'0 0.0
2014-Sep-18 00:33N 33°45' W 118°13'0 0.0
2014-Sep-17 23:33N 33°45' W 118°13'0 0.0
2014-Sep-17 22:33N 33°45' W 118°13'0 0.0
2014-Sep-17 21:33N 33°45' W 118°13'0 0.0
2014-Sep-17 20:33N 33°45' W 118°13'0 0.0
2014-Sep-17 19:33N 33°45' W 118°13'0 0.0
2014-Sep-17 18:33N 33°45' W 118°13'0 0.0
2014-Sep-17 17:33N 33°45' W 118°13'0 0.0
2014-Sep-17 05:06N 33°45' W 118°13'510.0
2014-Sep-17 04:33N 33°41' W 118°18'5 0.9
2014-Sep-16 22:33N 33°45' W 118°13'0 0.0
2014-Sep-16 21:28N 33°45' W 118°13'0 0.0
2014-Sep-16 20:33N 33°45' W 118°13'0 0.0
2014-Sep-16 19:33N 33°45' W 118°13'0 0.0
2014-Sep-16 18:33N 33°45' W 118°13'0 0.0
2014-Sep-16 01:33N 33°45' W 118°13'0 0.0
2014-Sep-16 00:33N 33°45' W 118°13'0 0.0
2014-Sep-15 23:33N 33°45' W 118°13'0 0.0
2014-Sep-15 22:33N 33°45' W 118°13'0 0.0
2014-Sep-15 19:32N 33°45' W 118°13'0 0.0
2014-Sep-15 01:33N 33°45' W 118°13'0 0.0
2014-Sep-15 00:33N 33°45' W 118°13'0 0.0
2014-Sep-14 23:33N 33°45' W 118°13'0 0.0
2014-Sep-14 22:33N 33°45' W 118°13'0 0.0
2014-Sep-14 21:33N 33°45' W 118°13'0 0.0
2014-Sep-14 20:33N 33°45' W 118°13'0 0.0
2014-Sep-14 19:33N 33°45' W 118°13'0 0.0
2014-Sep-14 18:33N 33°45' W 118°13'0 0.0
2014-Sep-14 17:33N 33°45' W 118°13'0 0.0
2014-Sep-14 16:33N 33°45' W 118°13'0 0.0
2014-Sep-14 15:33N 33°45' W 118°13'0 0.0
2014-Sep-14 14:33N 33°45' W 118°13'0 0.0
2014-Sep-14 13:33N 33°45' W 118°13'0 0.0
2014-Sep-14 12:33N 33°45' W 118°13'0 0.0
2014-Sep-14 11:33N 33°45' W 118°13'0 0.0
2014-Sep-14 10:33N 33°45' W 118°13'0 0.0
2014-Sep-14 09:33N 33°45' W 118°13'0 0.0
2014-Sep-14 08:33N 33°45' W 118°13'0 0.0
2014-Sep-14 07:33N 33°45' W 118°13'0 0.0
2014-Sep-14 06:33N 33°45' W 118°13'0 0.0
2014-Sep-14 05:33N 33°45' W 118°13'0 0.0
2014-Sep-14 04:32N 33°45' W 118°13'0 0.0
2014-Sep-14 03:33N 33°45' W 118°13'0 0.0
2014-Sep-14 02:32N 33°45' W 118°13'0 0.0
2014-Sep-14 01:33N 33°45' W 118°13'3 0.6
2014-Sep-13 21:33N 33°43' W 118°15'1 1.1
2014-Sep-13 20:33N 33°44' W 118°16'3 2.7
2014-Sep-13 19:33N 33°45' W 118°13'0 0.0
2014-Sep-13 18:33N 33°45' W 118°13'0 0.0
2014-Sep-13 17:33N 33°45' W 118°13'0 0.0
2014-Sep-13 16:33N 33°45' W 118°13'0 0.0
2014-Sep-13 15:33N 33°45' W 118°13'0 0.0
2014-Sep-13 14:33N 33°45' W 118°13'0 0.0
2014-Sep-13 13:33N 33°45' W 118°13'0 0.0
2014-Sep-13 12:33N 33°45' W 118°13'0 0.0
2014-Sep-13 11:33N 33°45' W 118°13'0 0.0
2014-Sep-13 10:33N 33°45' W 118°13'0 0.0
2014-Sep-13 09:33N 33°45' W 118°13'0 0.0
2014-Sep-13 08:32N 33°45' W 118°13'0 0.0
2014-Sep-13 07:32N 33°45' W 118°13'0 0.0
2014-Sep-13 06:33N 33°45' W 118°13'0 0.0
2014-Sep-13 05:33N 33°45' W 118°13'0 0.0
2014-Sep-13 04:33N 33°45' W 118°13'0 0.0
2014-Sep-13 03:31N 33°45' W 118°13'0 0.0
2014-Sep-13 02:32N 33°45' W 118°13'0 0.0
2014-Sep-13 01:22N 33°45' W 118°13'0 0.0
2014-Sep-13 00:33N 33°45' W 118°13'0 0.0
2014-Sep-12 23:33N 33°45' W 118°13'0 0.0
2014-Sep-12 22:33N 33°45' W 118°13'0 0.0
2014-Sep-12 21:33N 33°45' W 118°13'0 0.0
2014-Sep-12 20:33N 33°45' W 118°13'0 0.0
2014-Sep-12 19:33N 33°45' W 118°13'0 0.0
2014-Sep-12 18:33N 33°45' W 118°13'0 0.0
2014-Sep-12 17:33N 33°45' W 118°13'0 0.0
2014-Sep-12 16:32N 33°45' W 118°13'1 0.0
2014-Sep-11 21:33N 33°46' W 118°13'1 0.8
2014-Sep-11 20:33N 33°45' W 118°13'0 0.0
2014-Sep-11 19:33N 33°45' W 118°13'0 0.0
2014-Sep-11 18:33N 33°45' W 118°13'0 0.0
2014-Sep-11 17:33N 33°45' W 118°13'0 0.0
2014-Sep-11 01:23N 33°45' W 118°13'0 0.0
2014-Sep-11 00:33N 33°45' W 118°13'0 0.0
2014-Sep-10 23:33N 33°45' W 118°13'0 0.0
2014-Sep-10 22:06N 33°45' W 118°13'0 0.0
2014-Sep-10 21:19N 33°45' W 118°13'0 0.0
2014-Sep-10 20:33N 33°45' W 118°13'0 0.0
2014-Sep-10 19:33N 33°45' W 118°13'0 0.0
2014-Sep-10 18:30N 33°45' W 118°13'0 0.0
2014-Sep-10 16:28N 33°45' W 118°13'0 0.0
2014-Sep-10 01:10N 33°45' W 118°13'0 0.0
2014-Sep-10 00:33N 33°45' W 118°13'0 0.0
2014-Sep-09 22:05N 33°45' W 118°13'0 0.0
2014-Sep-09 21:33N 33°45' W 118°13'0 0.0
2014-Sep-09 20:31N 33°45' W 118°13'0 0.0
2014-Sep-09 18:26N 33°45' W 118°13'0 0.3
2014-Sep-09 17:19N 33°45' W 118°13'0 0.4
2014-Sep-09 16:33N 33°45' W 118°13'0 0.0
2014-Sep-08 23:30N 33°45' W 118°13'  

Dump ship's entire track history